createdAt,value
2023-01-21T00:01:31.833Z,-6.90
2023-01-21T00:04:03.203Z,-6.90
2023-01-21T00:06:35.857Z,-6.80
2023-01-21T00:09:07.333Z,-6.80
2023-01-21T00:11:38.758Z,-6.80
2023-01-21T00:14:10.193Z,-6.80
2023-01-21T00:16:41.802Z,-6.80
2023-01-21T00:19:13.314Z,-6.80
2023-01-21T00:21:44.868Z,-6.80
2023-01-21T00:24:16.367Z,-6.80
2023-01-21T00:26:47.813Z,-6.90
2023-01-21T00:29:20.280Z,-6.90
2023-01-21T00:31:51.872Z,-6.70
2023-01-21T00:34:23.705Z,-6.70
2023-01-21T00:36:56.618Z,-6.70
2023-01-21T00:39:28.445Z,-6.60
2023-01-21T00:41:59.918Z,-6.70
2023-01-21T00:44:31.296Z,-6.80
2023-01-21T00:47:02.752Z,-7.00
2023-01-21T00:49:34.173Z,-7.20
2023-01-21T00:52:06.072Z,-7.30
2023-01-21T00:54:37.681Z,-7.30
2023-01-21T00:57:09.049Z,-7.40
2023-01-21T00:59:40.687Z,-7.40
2023-01-21T01:02:12.452Z,-7.40
2023-01-21T01:04:44.130Z,-7.40
2023-01-21T01:07:15.664Z,-7.40
2023-01-21T01:09:47.198Z,-7.40
2023-01-21T01:12:18.657Z,-7.40
2023-01-21T01:14:50.121Z,-7.50
2023-01-21T01:17:21.628Z,-7.50
2023-01-21T01:19:53.067Z,-7.50
2023-01-21T01:22:24.425Z,-7.50
2023-01-21T01:24:55.887Z,-7.40
2023-01-21T01:27:27.252Z,-7.50
2023-01-21T01:29:58.718Z,-7.40
2023-01-21T01:32:30.148Z,-7.40
2023-01-21T01:35:01.593Z,-7.40
2023-01-21T01:37:32.969Z,-7.20
2023-01-21T01:40:04.768Z,-7.10
2023-01-21T01:42:36.495Z,-6.90
2023-01-21T01:45:12.881Z,-6.80
2023-01-21T01:47:47.209Z,-6.70
2023-01-21T01:50:21.035Z,-6.70
2023-01-21T01:52:52.417Z,-6.80
2023-01-21T01:55:25.608Z,-6.70
2023-01-21T01:57:57.865Z,-6.80
2023-01-21T02:00:29.633Z,-7.00
2023-01-21T02:03:19.591Z,-7.10
2023-01-21T02:05:51.652Z,-7.20
2023-01-21T02:08:24.237Z,-7.20
2023-01-21T02:10:56.793Z,-7.30
2023-01-21T02:13:30.547Z,-7.30
2023-01-21T02:16:10.533Z,-7.40
2023-01-21T02:18:44.940Z,-7.40
2023-01-21T02:21:51.411Z,-7.50
2023-01-21T02:24:56.360Z,-7.50
2023-01-21T02:27:55.578Z,-7.60
2023-01-21T02:31:09.760Z,-7.50
2023-01-21T02:33:49.637Z,-7.50
2023-01-21T02:36:35.132Z,-7.40
2023-01-21T02:39:10.374Z,-7.30
2023-01-21T02:41:49.229Z,-7.40
2023-01-21T02:44:24.574Z,-7.50
2023-01-21T02:46:59.046Z,-7.60
2023-01-21T02:49:33.912Z,-7.60
2023-01-21T02:52:05.371Z,-7.70
2023-01-21T02:54:51.957Z,-7.60
2023-01-21T02:57:39.228Z,-7.60
2023-01-21T03:00:16.994Z,-7.50
2023-01-21T03:03:05.556Z,-7.30
2023-01-21T03:05:44.108Z,-7.30
2023-01-21T03:08:19.554Z,-7.20
2023-01-21T03:10:55.485Z,-7.20
2023-01-21T03:13:52.264Z,-7.10
2023-01-21T03:16:44.463Z,-7.10
2023-01-21T03:19:18.646Z,-7.00
2023-01-21T03:21:52.124Z,-7.00
2023-01-21T03:24:25.605Z,-7.00
2023-01-21T03:27:00.187Z,-7.00
2023-01-21T03:29:33.186Z,-7.00
2023-01-21T03:32:09.532Z,-6.90
2023-01-21T03:34:44.685Z,-6.80
2023-01-21T03:37:20.256Z,-6.80
2023-01-21T03:39:55.285Z,-6.70
2023-01-21T03:42:27.451Z,-6.60
2023-01-21T03:44:59.786Z,-6.50
2023-01-21T03:47:34.420Z,-6.50
2023-01-21T03:50:10.799Z,-6.50
2023-01-21T03:52:43.469Z,-6.40
2023-01-21T03:55:17.352Z,-6.30
2023-01-21T03:57:48.748Z,-6.20
2023-01-21T04:00:21.470Z,-6.20
2023-01-21T04:02:52.943Z,-6.10
2023-01-21T04:05:24.381Z,-6.10
2023-01-21T04:07:55.801Z,-6.00
2023-01-21T04:10:27.393Z,-5.90
2023-01-21T04:12:58.783Z,-5.90
2023-01-21T04:15:30.309Z,-5.80
2023-01-21T04:18:01.866Z,-5.80
2023-01-21T04:20:34.014Z,-5.80
2023-01-21T04:23:05.461Z,-5.70
2023-01-21T04:25:37.049Z,-5.60
2023-01-21T04:28:08.517Z,-5.60
2023-01-21T04:30:40.143Z,-5.50
2023-01-21T04:33:11.737Z,-5.40
2023-01-21T04:35:43.197Z,-5.30
2023-01-21T04:38:15.829Z,-5.20
2023-01-21T04:40:47.482Z,-5.20
2023-01-21T04:43:18.886Z,-5.20
2023-01-21T04:45:50.893Z,-5.20
2023-01-21T04:48:22.660Z,-5.20
2023-01-21T04:50:54.340Z,-5.10
2023-01-21T04:53:25.837Z,-5.10
2023-01-21T04:55:57.308Z,-5.10
2023-01-21T04:58:28.725Z,-5.10
2023-01-21T05:01:00.309Z,-5.10
2023-01-21T05:03:31.656Z,-5.00
2023-01-21T05:06:03.111Z,-5.00
2023-01-21T05:08:34.477Z,-5.00
2023-01-21T05:11:07.655Z,-5.00
2023-01-21T05:13:39.117Z,-4.90
2023-01-21T05:16:10.897Z,-4.80
2023-01-21T05:18:42.742Z,-4.80
2023-01-21T05:21:15.220Z,-4.80
2023-01-21T05:23:46.644Z,-4.80
2023-01-21T05:26:19.302Z,-4.80
2023-01-21T05:28:50.785Z,-4.80
2023-01-21T05:31:22.348Z,-4.90
2023-01-21T05:33:54.051Z,-5.00
2023-01-21T05:36:25.388Z,-5.00
2023-01-21T05:38:58.745Z,-5.00
2023-01-21T05:41:30.229Z,-5.00
2023-01-21T05:44:01.685Z,-5.00
2023-01-21T05:46:33.109Z,-5.00
2023-01-21T05:49:04.559Z,-5.00
2023-01-21T05:51:35.944Z,-5.00
2023-01-21T05:54:07.639Z,-5.00
2023-01-21T05:56:39.197Z,-5.00
2023-01-21T05:59:11.571Z,-5.10
2023-01-21T06:01:42.952Z,-5.20
2023-01-21T06:04:14.536Z,-5.20
2023-01-21T06:06:45.911Z,-5.10
2023-01-21T06:09:17.328Z,-5.10
2023-01-21T06:11:48.735Z,-5.10
2023-01-21T06:14:20.296Z,-5.00
2023-01-21T06:16:51.961Z,-5.00
2023-01-21T06:19:23.484Z,-4.90
2023-01-21T06:21:54.853Z,-5.00
2023-01-21T06:24:26.380Z,-4.90
2023-01-21T06:26:57.745Z,-4.90
2023-01-21T06:29:29.197Z,-4.80
2023-01-21T06:32:00.770Z,-4.70
2023-01-21T06:34:32.330Z,-4.70
2023-01-21T06:37:03.749Z,-4.50
2023-01-21T06:39:35.189Z,-4.40
2023-01-21T06:42:06.771Z,-4.40
2023-01-21T06:44:38.247Z,-4.30
2023-01-21T06:47:09.729Z,-4.20
2023-01-21T06:49:41.332Z,-4.10
2023-01-21T06:52:12.708Z,-4.00
2023-01-21T06:54:44.134Z,-4.00
2023-01-21T06:57:15.978Z,-4.00
2023-01-21T06:59:47.433Z,-3.90
2023-01-21T07:02:18.924Z,-3.90
2023-01-21T07:04:51.394Z,-3.80
2023-01-21T07:07:22.772Z,-3.70
2023-01-21T07:09:54.273Z,-3.80
2023-01-21T07:12:25.656Z,-3.80
2023-01-21T07:14:57.158Z,-3.80
2023-01-21T07:17:28.500Z,-3.80
2023-01-21T07:20:00.135Z,-3.80
2023-01-21T07:22:31.757Z,-3.80
2023-01-21T07:25:03.213Z,-3.80
2023-01-21T07:27:34.661Z,-3.70
2023-01-21T07:30:09.162Z,-3.70
2023-01-21T07:32:43.094Z,-3.60
2023-01-21T07:35:15.162Z,-3.60
2023-01-21T07:37:47.404Z,-3.60
2023-01-21T07:40:19.281Z,-3.50
2023-01-21T07:42:53.729Z,-3.50
2023-01-21T07:45:25.586Z,-3.50
2023-01-21T07:47:57.117Z,-3.50
2023-01-21T07:50:29.124Z,-3.30
2023-01-21T07:53:00.633Z,-3.20
2023-01-21T07:55:32.073Z,-3.20
2023-01-21T07:58:03.523Z,-3.20
2023-01-21T08:00:34.930Z,-3.10
2023-01-21T08:03:06.452Z,-3.00
2023-01-21T08:05:37.826Z,-2.80
2023-01-21T08:08:09.289Z,-2.60
2023-01-21T08:10:40.803Z,-2.70
2023-01-21T08:13:12.246Z,-2.70
2023-01-21T08:15:43.628Z,-2.60
2023-01-21T08:18:15.251Z,-2.50
2023-01-21T08:20:46.722Z,-2.40
2023-01-21T08:23:18.341Z,-2.40
2023-01-21T08:25:51.412Z,-2.30
2023-01-21T08:28:25.414Z,-2.20
2023-01-21T08:31:04.175Z,-2.00
2023-01-21T08:33:36.193Z,-2.00
2023-01-21T08:36:12.858Z,-1.90
2023-01-21T08:38:46.131Z,-1.90
2023-01-21T08:41:18.103Z,-1.80
2023-01-21T08:43:49.499Z,-1.70
2023-01-21T08:46:21.621Z,-1.60
2023-01-21T08:48:53.128Z,-1.60
2023-01-21T08:51:24.604Z,-1.60
2023-01-21T08:53:56.089Z,-1.50
2023-01-21T08:56:28.075Z,-1.50
2023-01-21T08:59:00.108Z,-1.50
2023-01-21T09:01:31.658Z,-1.40
2023-01-21T09:04:03.199Z,-1.30
2023-01-21T09:06:35.007Z,-1.30
2023-01-21T09:09:06.585Z,-1.20
2023-01-21T09:11:38.494Z,-1.10
2023-01-21T09:14:10.523Z,-1.10
2023-01-21T09:16:41.921Z,-1.20
2023-01-21T09:19:13.361Z,-1.20
2023-01-21T09:21:44.724Z,-1.10
2023-01-21T09:24:16.374Z,-1.10
2023-01-21T09:26:47.688Z,-1.00
2023-01-21T09:29:19.223Z,-1.00
2023-01-21T09:31:50.640Z,-1.00
2023-01-21T09:34:22.154Z,-1.00
2023-01-21T09:36:53.543Z,-0.90
2023-01-21T09:39:25.453Z,-0.80
2023-01-21T09:41:58.134Z,-0.60
2023-01-21T09:45:09.037Z,-0.40
2023-01-21T09:47:44.306Z,-0.20
2023-01-21T09:50:19.172Z,0.10
2023-01-21T09:52:52.099Z,0.10
2023-01-21T09:55:26.546Z,0.10
2023-01-21T09:58:14.477Z,0.10
2023-01-21T10:00:49.437Z,0.10
2023-01-21T10:03:26.317Z,0.10
2023-01-21T10:06:09.936Z,0.10
2023-01-21T10:08:51.913Z,0.10
2023-01-21T10:11:30.039Z,0.20
2023-01-21T10:14:12.109Z,0.20
2023-01-21T10:16:47.350Z,0.20
2023-01-21T10:19:21.888Z,0.30
2023-01-21T10:21:57.016Z,0.40
2023-01-21T10:24:31.516Z,0.40
2023-01-21T10:27:02.888Z,0.50
2023-01-21T10:29:35.897Z,0.50
2023-01-21T10:32:09.859Z,0.50
2023-01-21T10:34:44.256Z,0.40
2023-01-21T10:37:20.605Z,0.20
2023-01-21T10:39:55.694Z,0.20
2023-01-21T10:42:36.872Z,0.30
2023-01-21T10:45:13.032Z,0.30
2023-01-21T10:47:48.064Z,0.30
2023-01-21T10:50:27.930Z,0.20
2023-01-21T10:53:03.353Z,0.20
2023-01-21T10:56:26.336Z,0.20
2023-01-21T10:59:01.212Z,0.30
2023-01-21T11:01:35.391Z,0.50
2023-01-21T11:04:11.795Z,0.70
2023-01-21T11:06:46.596Z,0.70
2023-01-21T11:09:18.088Z,0.80
2023-01-21T11:11:49.524Z,0.90
2023-01-21T11:14:21.752Z,1.00
2023-01-21T11:16:54.750Z,1.10
2023-01-21T11:19:29.511Z,1.10
2023-01-21T11:22:04.695Z,1.10
2023-01-21T11:24:44.175Z,1.10
2023-01-21T11:27:22.564Z,1.10
2023-01-21T11:29:54.031Z,1.10
2023-01-21T11:32:27.532Z,1.20
2023-01-21T11:35:04.859Z,1.30
2023-01-21T11:37:38.536Z,1.30
2023-01-21T11:40:15.133Z,1.20
2023-01-21T11:42:50.669Z,1.20
2023-01-21T11:45:30.927Z,1.20
2023-01-21T11:48:03.409Z,1.30
2023-01-21T11:50:37.673Z,1.50
2023-01-21T11:53:15.540Z,1.70
2023-01-21T11:55:50.214Z,2.00
2023-01-21T11:58:25.639Z,2.20
2023-01-21T12:00:59.974Z,2.20
2023-01-21T12:03:35.057Z,2.20
2023-01-21T12:06:08.498Z,2.20
2023-01-21T12:08:41.845Z,2.00
2023-01-21T12:11:14.724Z,2.10
2023-01-21T12:13:49.394Z,2.10
2023-01-21T12:16:30.524Z,2.10
2023-01-21T12:19:40.018Z,2.10
2023-01-21T12:22:37.610Z,2.10
2023-01-21T12:25:24.728Z,2.00
2023-01-21T12:28:08.799Z,1.80
2023-01-21T12:30:44.034Z,1.80
2023-01-21T12:33:18.794Z,1.60
2023-01-21T12:36:12.478Z,1.40
2023-01-21T12:38:47.683Z,1.40
2023-01-21T12:41:22.570Z,1.60
2023-01-21T12:43:57.770Z,1.60
2023-01-21T12:46:32.468Z,1.70
2023-01-21T12:49:07.142Z,1.80
2023-01-21T12:51:42.188Z,1.80
2023-01-21T12:54:16.967Z,1.60
2023-01-21T12:56:51.561Z,1.50
2023-01-21T12:59:31.656Z,1.50
2023-01-21T13:02:06.209Z,1.30
2023-01-21T13:05:00.217Z,1.00
2023-01-21T13:07:37.424Z,0.90
2023-01-21T13:10:16.859Z,0.90
2023-01-21T13:12:56.797Z,0.90
2023-01-21T13:15:31.734Z,0.90
2023-01-21T13:18:06.141Z,0.80
2023-01-21T13:20:41.077Z,0.60
2023-01-21T13:23:16.052Z,0.40
2023-01-21T13:25:50.497Z,0.30
2023-01-21T13:28:25.056Z,0.20
2023-01-21T13:30:59.890Z,0.20
2023-01-21T13:33:37.430Z,0.20
2023-01-21T13:36:20.374Z,0.30
2023-01-21T13:38:55.732Z,0.40
2023-01-21T13:41:36.870Z,0.50
2023-01-21T13:44:14.876Z,0.30
2023-01-21T13:49:51.606Z,0.00
2023-01-21T13:52:26.680Z,-0.10
2023-01-21T13:55:05.773Z,-0.10
2023-01-21T13:57:54.109Z,-0.20
2023-01-21T14:00:29.236Z,-0.20
2023-01-21T14:03:05.145Z,-0.20
2023-01-21T14:05:39.526Z,-0.20
2023-01-21T14:08:16.575Z,-0.20
2023-01-21T14:10:51.412Z,-0.30
2023-01-21T14:17:18.237Z,-0.10
2023-01-21T14:20:51.158Z,-0.10
2023-01-21T14:26:50.514Z,-0.10
2023-01-21T14:29:23.476Z,-0.10
2023-01-21T14:31:59.106Z,-0.10
2023-01-21T14:34:33.945Z,-0.20
2023-01-21T14:37:08.686Z,-0.20
2023-01-21T14:39:45.051Z,-0.20
2023-01-21T14:42:19.629Z,-0.10
2023-01-21T14:45:06.013Z,0.00
2023-01-21T14:47:46.975Z,0.00
2023-01-21T14:50:46.870Z,0.00
2023-01-21T14:53:27.916Z,0.00
2023-01-21T14:56:13.536Z,0.10
2023-01-21T14:58:49.009Z,0.10
2023-01-21T15:01:35.461Z,0.20
2023-01-21T15:04:10.605Z,0.30
2023-01-21T15:06:43.504Z,0.30
2023-01-21T15:09:22.591Z,0.30
2023-01-21T15:11:59.655Z,0.20
2023-01-21T15:14:33.689Z,0.10
2023-01-21T15:17:06.300Z,0.00
2023-01-21T15:19:38.066Z,-0.10
2023-01-21T15:22:21.988Z,-0.10
2023-01-21T15:28:44.698Z,-0.20
2023-01-21T15:31:53.018Z,-0.20
2023-01-21T15:37:02.744Z,-0.30
2023-01-21T15:39:35.686Z,-0.30
2023-01-21T15:42:12.806Z,-0.40
2023-01-21T15:45:13.983Z,-0.40
2023-01-21T15:50:54.605Z,-0.50
2023-01-21T15:53:36.555Z,-0.50
2023-01-21T15:56:18.504Z,-0.60
2023-01-21T15:58:56.412Z,-0.60
2023-01-21T16:01:32.753Z,-0.60
2023-01-21T16:04:16.615Z,-0.60
2023-01-21T16:06:52.973Z,-0.60
2023-01-21T16:09:29.328Z,-0.70
2023-01-21T16:12:08.011Z,-0.70
2023-01-21T16:14:46.676Z,-0.70
2023-01-21T16:17:21.321Z,-0.80
2023-01-21T16:19:56.685Z,-0.80
2023-01-21T16:22:30.957Z,-0.90
2023-01-21T16:25:05.330Z,-0.90
2023-01-21T16:27:37.186Z,-0.90
2023-01-21T16:30:13.406Z,-0.90
2023-01-21T16:32:44.879Z,-0.80
2023-01-21T16:35:17.010Z,-0.80
2023-01-21T16:37:56.451Z,-0.80
2023-01-21T16:40:31.747Z,-0.80
2023-01-21T16:43:25.160Z,-0.70
2023-01-21T16:45:59.059Z,-0.70
2023-01-21T16:48:33.315Z,-0.60
2023-01-21T16:51:05.683Z,-0.60
2023-01-21T16:53:37.424Z,-0.70
2023-01-21T16:56:25.882Z,-0.80
2023-01-21T16:58:57.358Z,-0.80
2023-01-21T17:01:30.744Z,-0.70
2023-01-21T17:04:03.265Z,-0.70
2023-01-21T17:06:34.897Z,-0.60
2023-01-21T17:09:09.121Z,-0.70
2023-01-21T17:11:43.504Z,-0.60
2023-01-21T17:14:20.461Z,-0.70
2023-01-21T17:16:54.214Z,-0.60
2023-01-21T17:19:29.565Z,-0.60
2023-01-21T17:22:03.153Z,-0.70
2023-01-21T17:24:39.306Z,-0.70
2023-01-21T17:27:12.682Z,-0.70
2023-01-21T17:29:45.414Z,-0.70
2023-01-21T17:32:27.918Z,-0.70
2023-01-21T17:35:12.068Z,-0.70
2023-01-21T17:37:46.635Z,-0.70
2023-01-21T17:40:34.081Z,-0.70
2023-01-21T17:43:18.479Z,-0.80
2023-01-21T17:45:51.783Z,-0.80
2023-01-21T17:48:27.113Z,-0.80
2023-01-21T17:51:05.522Z,-0.90
2023-01-21T17:53:40.169Z,-0.90
2023-01-21T17:56:12.197Z,-0.90
2023-01-21T17:58:50.144Z,-0.90
2023-01-21T18:01:22.316Z,-0.80
2023-01-21T18:03:53.790Z,-0.80
2023-01-21T18:06:28.518Z,-0.80
2023-01-21T18:09:00.888Z,-0.70
2023-01-21T18:11:32.459Z,-0.70
2023-01-21T18:14:05.482Z,-0.70
2023-01-21T18:16:36.864Z,-0.70
2023-01-21T18:19:10.629Z,-0.70
2023-01-21T18:21:42.005Z,-0.70
2023-01-21T18:24:13.755Z,-0.80
2023-01-21T18:26:45.504Z,-0.70
2023-01-21T18:29:18.248Z,-0.80
2023-01-21T18:31:52.226Z,-0.80
2023-01-21T18:34:24.472Z,-0.80
2023-01-21T18:36:57.616Z,-0.80
2023-01-21T18:39:29.207Z,-0.80
2023-01-21T18:42:02.380Z,-0.80
2023-01-21T18:44:33.837Z,-0.80
2023-01-21T18:47:12.345Z,-0.80
2023-01-21T18:49:44.269Z,-0.80
2023-01-21T18:52:17.230Z,-0.80
2023-01-21T18:54:49.265Z,-0.80
2023-01-21T18:57:22.943Z,-0.90
2023-01-21T18:59:54.468Z,-0.90
2023-01-21T19:02:26.141Z,-0.90
2023-01-21T19:04:57.540Z,-0.90
2023-01-21T19:07:30.116Z,-0.90
2023-01-21T19:10:01.540Z,-0.90
2023-01-21T19:12:32.892Z,-0.90
2023-01-21T19:15:06.477Z,-0.90
2023-01-21T19:17:38.272Z,-0.80
2023-01-21T19:20:17.735Z,-0.90
2023-01-21T19:22:50.465Z,-0.80
2023-01-21T19:25:23.166Z,-0.80
2023-01-21T19:27:56.841Z,-0.80
2023-01-21T19:30:30.605Z,-0.80
2023-01-21T19:33:02.597Z,-0.80
2023-01-21T19:35:37.522Z,-0.90
2023-01-21T19:38:12.945Z,-0.90
2023-01-21T19:40:45.700Z,-0.90
2023-01-21T19:43:18.903Z,-0.90
2023-01-21T19:45:52.120Z,-0.90
2023-01-21T19:48:23.774Z,-0.80
2023-01-21T19:50:55.219Z,-0.80
2023-01-21T19:53:26.798Z,-0.80
2023-01-21T19:55:58.708Z,-0.80
2023-01-21T19:58:33.027Z,-0.80
2023-01-21T20:01:04.660Z,-0.90
2023-01-21T20:03:36.030Z,-0.90
2023-01-21T20:06:11.603Z,-0.90
2023-01-21T20:08:44.970Z,-0.80
2023-01-21T20:11:17.950Z,-0.90
2023-01-21T20:13:49.525Z,-0.90
2023-01-21T20:16:23.488Z,-0.90
2023-01-21T20:18:56.548Z,-0.90
2023-01-21T20:21:27.957Z,-0.90
2023-01-21T20:23:59.525Z,-0.90
2023-01-21T20:26:31.029Z,-0.80
2023-01-21T20:29:03.795Z,-0.90
2023-01-21T20:31:35.516Z,-0.90
2023-01-21T20:34:06.992Z,-0.90
2023-01-21T20:36:39.274Z,-0.90
2023-01-21T20:39:14.278Z,-0.90
2023-01-21T20:41:45.697Z,-0.90
2023-01-21T20:44:17.310Z,-0.90
2023-01-21T20:46:48.748Z,-0.90
2023-01-21T20:49:20.226Z,-0.90
2023-01-21T20:51:52.012Z,-0.90
2023-01-21T20:54:25.040Z,-0.90
2023-01-21T20:56:56.563Z,-0.90
2023-01-21T20:59:28.150Z,-0.90
2023-01-21T21:01:59.646Z,-0.90
2023-01-21T21:04:31.131Z,-1.00
2023-01-21T21:07:02.846Z,-1.00
2023-01-21T21:09:38.404Z,-1.00
2023-01-21T21:12:11.919Z,-1.00
2023-01-21T21:14:48.906Z,-0.90
2023-01-21T21:17:22.364Z,-0.90
2023-01-21T21:19:53.869Z,-0.80
2023-01-21T21:22:25.319Z,-0.80
2023-01-21T21:24:56.759Z,-0.80
2023-01-21T21:27:28.144Z,-0.80
2023-01-21T21:29:59.113Z,-0.90
2023-01-21T21:32:30.385Z,-1.00
2023-01-21T21:35:01.730Z,-0.90
2023-01-21T21:37:34.319Z,-1.00
2023-01-21T21:40:07.535Z,-1.00
2023-01-21T21:42:56.634Z,-1.00
2023-01-21T21:45:28.038Z,-1.00
2023-01-21T21:48:17.210Z,-1.00
2023-01-21T21:50:50.114Z,-0.90
2023-01-21T21:53:21.700Z,-0.90
2023-01-21T21:55:53.326Z,-0.90
2023-01-21T21:58:24.870Z,-0.80
2023-01-21T22:01:08.473Z,-0.80
2023-01-21T22:03:41.542Z,-0.80
2023-01-21T22:06:13.852Z,-0.90
2023-01-21T22:08:45.513Z,-0.90
2023-01-21T22:11:19.453Z,-0.90
2023-01-21T22:13:52.192Z,-1.00
2023-01-21T22:16:26.211Z,-1.00
2023-01-21T22:18:59.157Z,-1.00
2023-01-21T22:21:32.669Z,-1.00
2023-01-21T22:24:05.555Z,-1.00
2023-01-21T22:26:38.336Z,-1.00
2023-01-21T22:29:10.075Z,-1.00
2023-01-21T22:31:42.088Z,-0.90
2023-01-21T22:34:13.692Z,-1.00
2023-01-21T22:36:47.849Z,-1.10
2023-01-21T22:39:20.942Z,-1.10
2023-01-21T22:41:55.087Z,-1.00
2023-01-21T22:44:26.568Z,-1.00
2023-01-21T22:46:57.985Z,-0.90
2023-01-21T22:49:29.443Z,-0.90
2023-01-21T22:52:00.905Z,-0.80
2023-01-21T22:54:32.287Z,-0.80
2023-01-21T22:57:03.932Z,-0.80
2023-01-21T22:59:35.475Z,-0.90
2023-01-21T23:02:07.317Z,-0.80
2023-01-21T23:05:13.341Z,-0.80
2023-01-21T23:07:44.854Z,-0.80
2023-01-21T23:10:17.094Z,-0.90
2023-01-21T23:12:49.060Z,-0.90
2023-01-21T23:15:20.567Z,-1.00
2023-01-21T23:17:52.753Z,-1.10
2023-01-21T23:20:25.961Z,-1.10
2023-01-21T23:22:57.578Z,-1.00
2023-01-21T23:25:28.985Z,-1.00
2023-01-21T23:28:00.419Z,-0.90
2023-01-21T23:30:31.789Z,-0.90
2023-01-21T23:33:03.198Z,-0.90
2023-01-21T23:35:35.262Z,-1.00
2023-01-21T23:38:06.795Z,-1.00
2023-01-21T23:40:38.123Z,-1.00
2023-01-21T23:43:09.544Z,-0.90
2023-01-21T23:45:41.143Z,-0.90
2023-01-21T23:48:13.176Z,-0.90
2023-01-21T23:50:44.509Z,-0.90
2023-01-21T23:53:16.003Z,-0.90
2023-01-21T23:55:47.451Z,-1.00
2023-01-21T23:58:18.981Z,-1.00
